sensor_id;sensor_type;location;lat;lon;timestamp;pressure;altitude;pressure_sealevel;temperature;humidity
59757;BME280;45631;51.962;5.974;2023-04-29T00:00:34;101232.00;;;9.33;100.00
59757;BME280;45631;51.962;5.974;2023-04-29T00:03:04;101238.84;;;9.35;100.00
59757;BME280;45631;51.962;5.974;2023-04-29T00:05:32;101239.28;;;9.27;100.00
59757;BME280;45631;51.962;5.974;2023-04-29T00:08:01;101238.06;;;9.17;100.00
59757;BME280;45631;51.962;5.974;2023-04-29T00:10:33;101231.09;;;9.16;100.00
59757;BME280;45631;51.962;5.974;2023-04-29T00:13:02;101235.59;;;9.14;100.00
59757;BME280;45631;51.962;5.974;2023-04-29T00:15:32;101242.69;;;9.12;100.00
59757;BME280;45631;51.962;5.974;2023-04-29T00:18:00;101244.22;;;9.16;100.00
59757;BME280;45631;51.962;5.974;2023-04-29T00:20:30;101241.78;;;9.13;100.00
59757;BME280;45631;51.962;5.974;2023-04-29T00:22:58;101249.34;;;9.19;100.00
59757;BME280;45631;51.962;5.974;2023-04-29T00:25:26;101249.47;;;9.16;100.00
59757;BME280;45631;51.962;5.974;2023-04-29T00:27:54;101253.97;;;9.14;100.00
59757;BME280;45631;51.962;5.974;2023-04-29T00:30:27;101254.44;;;9.05;100.00
59757;BME280;45631;51.962;5.974;2023-04-29T00:32:55;101259.69;;;9.05;100.00
59757;BME280;45631;51.962;5.974;2023-04-29T00:35:23;101270.81;;;9.10;100.00
59757;BME280;45631;51.962;5.974;2023-04-29T00:37:53;101271.09;;;9.04;100.00
59757;BME280;45631;51.962;5.974;2023-04-29T00:40:21;101271.72;;;9.09;100.00
59757;BME280;45631;51.962;5.974;2023-04-29T00:42:49;101277.06;;;9.07;100.00
59757;BME280;45631;51.962;5.974;2023-04-29T00:45:17;101278.22;;;9.02;100.00
59757;BME280;45631;51.962;5.974;2023-04-29T00:47:45;101274.59;;;9.04;100.00
59757;BME280;45631;51.962;5.974;2023-04-29T00:50:13;101264.78;;;9.08;100.00
59757;BME280;45631;51.962;5.974;2023-04-29T00:52:45;101280.69;;;9.05;100.00
59757;BME280;45631;51.962;5.974;2023-04-29T00:55:15;101279.84;;;9.04;100.00
59757;BME280;45631;51.962;5.974;2023-04-29T00:57:44;101283.94;;;9.10;100.00
59757;BME280;45631;51.962;5.974;2023-04-29T01:00:13;101279.38;;;9.13;100.00
59757;BME280;45631;51.962;5.974;2023-04-29T01:02:42;101283.94;;;9.10;100.00
59757;BME280;45631;51.962;5.974;2023-04-29T01:05:12;101290.78;;;9.12;100.00
59757;BME280;45631;51.962;5.974;2023-04-29T01:07:47;101290.72;;;9.14;100.00
59757;BME280;45631;51.962;5.974;2023-04-29T01:10:21;101275.97;;;9.11;100.00
59757;BME280;45631;51.962;5.974;2023-04-29T01:13:04;101290.09;;;9.09;100.00
59757;BME280;45631;51.962;5.974;2023-04-29T01:15:38;101289.88;;;9.13;100.00
59757;BME280;45631;51.962;5.974;2023-04-29T01:18:11;101300.19;;;9.17;100.00
59757;BME280;45631;51.962;5.974;2023-04-29T01:20:42;101301.03;;;9.17;100.00
59757;BME280;45631;51.962;5.974;2023-04-29T01:23:11;101300.13;;;9.18;100.00
59757;BME280;45631;51.962;5.974;2023-04-29T01:25:40;101299.66;;;9.10;100.00
59757;BME280;45631;51.962;5.974;2023-04-29T01:28:15;101309.16;;;9.12;100.00
59757;BME280;45631;51.962;5.974;2023-04-29T01:30:56;101312.16;;;9.05;100.00
59757;BME280;45631;51.962;5.974;2023-04-29T01:33:33;101313.88;;;9.06;100.00
59757;BME280;45631;51.962;5.974;2023-04-29T01:36:13;101313.34;;;8.99;100.00
59757;BME280;45631;51.962;5.974;2023-04-29T01:38:47;101316.03;;;8.98;100.00
59757;BME280;45631;51.962;5.974;2023-04-29T01:41:29;101314.72;;;8.89;100.00
59757;BME280;45631;51.962;5.974;2023-04-29T01:44:00;101322.81;;;8.84;100.00
59757;BME280;45631;51.962;5.974;2023-04-29T01:46:30;101319.13;;;8.88;100.00
59757;BME280;45631;51.962;5.974;2023-04-29T01:48:59;101325.53;;;8.83;100.00
59757;BME280;45631;51.962;5.974;2023-04-29T01:51:27;101328.69;;;8.89;100.00
59757;BME280;45631;51.962;5.974;2023-04-29T01:53:55;101331.25;;;8.91;100.00
59757;BME280;45631;51.962;5.974;2023-04-29T01:56:25;101332.41;;;8.85;100.00
59757;BME280;45631;51.962;5.974;2023-04-29T01:58:53;101339.41;;;8.85;100.00
59757;BME280;45631;51.962;5.974;2023-04-29T02:01:21;101334.88;;;8.88;100.00
59757;BME280;45631;51.962;5.974;2023-04-29T02:03:52;101329.88;;;8.84;100.00
59757;BME280;45631;51.962;5.974;2023-04-29T02:06:21;101328.78;;;8.88;100.00
59757;BME280;45631;51.962;5.974;2023-04-29T02:08:50;101331.47;;;8.86;100.00
59757;BME280;45631;51.962;5.974;2023-04-29T02:11:18;101334.09;;;8.86;100.00
59757;BME280;45631;51.962;5.974;2023-04-29T02:13:50;101340.75;;;8.93;100.00
59757;BME280;45631;51.962;5.974;2023-04-29T02:16:18;101337.41;;;8.90;100.00
59757;BME280;45631;51.962;5.974;2023-04-29T02:18:46;101336.66;;;8.88;100.00
59757;BME280;45631;51.962;5.974;2023-04-29T02:21:14;101349.06;;;8.84;100.00
59757;BME280;45631;51.962;5.974;2023-04-29T02:23:42;101353.00;;;8.75;100.00
59757;BME280;45631;51.962;5.974;2023-04-29T02:26:11;101352.75;;;8.80;100.00
59757;BME280;45631;51.962;5.974;2023-04-29T02:28:41;101356.75;;;8.87;100.00
59757;BME280;45631;51.962;5.974;2023-04-29T02:31:11;101355.78;;;8.90;100.00
59757;BME280;45631;51.962;5.974;2023-04-29T02:33:39;101357.72;;;8.86;100.00
59757;BME280;45631;51.962;5.974;2023-04-29T02:36:07;101367.19;;;8.89;100.00
59757;BME280;45631;51.962;5.974;2023-04-29T02:38:35;101370.50;;;8.92;100.00
59757;BME280;45631;51.962;5.974;2023-04-29T02:41:04;101367.97;;;8.91;100.00
59757;BME280;45631;51.962;5.974;2023-04-29T02:43:32;101371.81;;;8.84;100.00
59757;BME280;45631;51.962;5.974;2023-04-29T02:46:00;101379.69;;;8.84;100.00
59757;BME280;45631;51.962;5.974;2023-04-29T02:48:32;101383.72;;;8.91;100.00
59757;BME280;45631;51.962;5.974;2023-04-29T02:51:00;101392.28;;;8.94;100.00
59757;BME280;45631;51.962;5.974;2023-04-29T02:53:28;101396.75;;;8.92;100.00
59757;BME280;45631;51.962;5.974;2023-04-29T02:55:56;101393.28;;;8.92;100.00
59757;BME280;45631;51.962;5.974;2023-04-29T02:58:24;101398.72;;;8.87;100.00
59757;BME280;45631;51.962;5.974;2023-04-29T03:00:55;101397.81;;;8.88;100.00
59757;BME280;45631;51.962;5.974;2023-04-29T03:03:23;101397.66;;;8.91;100.00
59757;BME280;45631;51.962;5.974;2023-04-29T03:05:53;101402.91;;;8.91;100.00
59757;BME280;45631;51.962;5.974;2023-04-29T03:08:21;101397.56;;;8.93;100.00
59757;BME280;45631;51.962;5.974;2023-04-29T03:10:49;101402.22;;;8.88;100.00
59757;BME280;45631;51.962;5.974;2023-04-29T03:13:17;101397.97;;;8.85;100.00
59757;BME280;45631;51.962;5.974;2023-04-29T03:15:46;101402.31;;;8.86;100.00
59757;BME280;45631;51.962;5.974;2023-04-29T03:18:15;101406.59;;;8.87;100.00
59757;BME280;45631;51.962;5.974;2023-04-29T03:20:43;101410.31;;;8.83;100.00
59757;BME280;45631;51.962;5.974;2023-04-29T03:23:12;101413.09;;;8.80;100.00
59757;BME280;45631;51.962;5.974;2023-04-29T03:25:43;101416.63;;;8.79;100.00
59757;BME280;45631;51.962;5.974;2023-04-29T03:28:11;101414.88;;;8.79;100.00
59757;BME280;45631;51.962;5.974;2023-04-29T03:30:39;101408.28;;;8.71;100.00
59757;BME280;45631;51.962;5.974;2023-04-29T03:33:07;101414.16;;;8.76;100.00
59757;BME280;45631;51.962;5.974;2023-04-29T03:35:35;101416.78;;;8.76;100.00
59757;BME280;45631;51.962;5.974;2023-04-29T03:38:03;101412.25;;;8.79;100.00
59757;BME280;45631;51.962;5.974;2023-04-29T03:40:32;101412.16;;;8.81;100.00
59757;BME280;45631;51.962;5.974;2023-04-29T03:43:00;101411.38;;;8.79;100.00
59757;BME280;45631;51.962;5.974;2023-04-29T03:45:29;101406.28;;;8.76;100.00
59757;BME280;45631;51.962;5.974;2023-04-29T03:47:57;101419.47;;;8.74;100.00
59757;BME280;45631;51.962;5.974;2023-04-29T03:50:25;101422.19;;;8.73;100.00
59757;BME280;45631;51.962;5.974;2023-04-29T03:52:53;101424.56;;;8.77;100.00
59757;BME280;45631;51.962;5.974;2023-04-29T03:55:21;101427.19;;;8.77;100.00
59757;BME280;45631;51.962;5.974;2023-04-29T03:57:51;101436.13;;;8.73;100.00
59757;BME280;45631;51.962;5.974;2023-04-29T04:00:19;101429.97;;;8.74;100.00
59757;BME280;45631;51.962;5.974;2023-04-29T04:02:47;101431.53;;;8.78;100.00
59757;BME280;45631;51.962;5.974;2023-04-29T04:05:15;101446.38;;;8.78;100.00
59757;BME280;45631;51.962;5.974;2023-04-29T04:07:45;101446.69;;;8.72;100.00
59757;BME280;45631;51.962;5.974;2023-04-29T04:10:13;101450.09;;;8.74;100.00
59757;BME280;45631;51.962;5.974;2023-04-29T04:12:41;101446.69;;;8.72;100.00
59757;BME280;45631;51.962;5.974;2023-04-29T04:15:11;101450.09;;;8.74;100.00
59757;BME280;45631;51.962;5.974;2023-04-29T04:17:41;101458.91;;;8.73;100.00
59757;BME280;45631;51.962;5.974;2023-04-29T04:20:11;101456.13;;;8.76;100.00
59757;BME280;45631;51.962;5.974;2023-04-29T04:22:39;101465.78;;;8.75;100.00
59757;BME280;45631;51.962;5.974;2023-04-29T04:25:08;101465.91;;;8.72;100.00
59757;BME280;45631;51.962;5.974;2023-04-29T04:27:36;101465.28;;;8.67;100.00
59757;BME280;45631;51.962;5.974;2023-04-29T04:30:06;101468.66;;;8.69;100.00
59757;BME280;45631;51.962;5.974;2023-04-29T04:32:35;101480.63;;;8.75;100.00
59757;BME280;45631;51.962;5.974;2023-04-29T04:35:05;101473.56;;;8.77;100.00
59757;BME280;45631;51.962;5.974;2023-04-29T04:37:34;101485.53;;;8.83;100.00
59757;BME280;45631;51.962;5.974;2023-04-29T04:40:02;101483.09;;;8.78;100.00
59757;BME280;45631;51.962;5.974;2023-04-29T04:42:30;101492.75;;;8.77;100.00
59757;BME280;45631;51.962;5.974;2023-04-29T04:44:58;101493.75;;;8.75;100.00
59757;BME280;45631;51.962;5.974;2023-04-29T04:47:26;101490.50;;;8.70;100.00
59757;BME280;45631;51.962;5.974;2023-04-29T04:49:56;101490.22;;;8.76;100.00
59757;BME280;45631;51.962;5.974;2023-04-29T04:52:24;101498.84;;;8.78;100.00
59757;BME280;45631;51.962;5.974;2023-04-29T04:54:52;101497.00;;;8.80;100.00
59757;BME280;45631;51.962;5.974;2023-04-29T04:57:20;101499.00;;;8.75;100.00
59757;BME280;45631;51.962;5.974;2023-04-29T04:59:49;101509.41;;;8.76;100.00
59757;BME280;45631;51.962;5.974;2023-04-29T05:02:17;101506.22;;;8.70;100.00
59757;BME280;45631;51.962;5.974;2023-04-29T05:04:46;101511.28;;;8.74;100.00
59757;BME280;45631;51.962;5.974;2023-04-29T05:07:15;101519.91;;;8.76;100.00
59757;BME280;45631;51.962;5.974;2023-04-29T05:09:43;101518.16;;;8.77;100.00
59757;BME280;45631;51.962;5.974;2023-04-29T05:12:11;101522.44;;;8.78;100.00
59757;BME280;45631;51.962;5.974;2023-04-29T05:14:39;101507.16;;;8.69;100.00
59757;BME280;45631;51.962;5.974;2023-04-29T05:17:07;101521.75;;;8.74;100.00
59757;BME280;45631;51.962;5.974;2023-04-29T05:19:39;101519.97;;;8.75;100.00
59757;BME280;45631;51.962;5.974;2023-04-29T05:22:07;101531.09;;;8.80;100.00
59757;BME280;45631;51.962;5.974;2023-04-29T05:24:37;101535.44;;;8.81;100.00
59757;BME280;45631;51.962;5.974;2023-04-29T05:27:05;101534.22;;;8.88;100.00
59757;BME280;45631;51.962;5.974;2023-04-29T05:29:36;101543.09;;;8.86;100.00
59757;BME280;45631;51.962;5.974;2023-04-29T05:32:04;101535.13;;;8.87;100.00
59757;BME280;45631;51.962;5.974;2023-04-29T05:34:32;101536.69;;;8.91;100.00
59757;BME280;45631;51.962;5.974;2023-04-29T05:37:00;101540.94;;;8.94;100.00
59757;BME280;45631;51.962;5.974;2023-04-29T05:39:28;101541.03;;;8.92;100.00
59757;BME280;45631;51.962;5.974;2023-04-29T05:41:58;101549.47;;;8.99;100.00
59757;BME280;45631;51.962;5.974;2023-04-29T05:44:28;101549.53;;;8.98;100.00
59757;BME280;45631;51.962;5.974;2023-04-29T05:46:56;101552.00;;;9.01;100.00
59757;BME280;45631;51.962;5.974;2023-04-29T05:49:24;101560.66;;;9.03;100.00
59757;BME280;45631;51.962;5.974;2023-04-29T05:51:52;101564.84;;;9.07;100.00
59757;BME280;45631;51.962;5.974;2023-04-29T05:54:20;101564.69;;;9.10;100.00
59757;BME280;45631;51.962;5.974;2023-04-29T05:56:51;101569.03;;;9.11;100.00
59757;BME280;45631;51.962;5.974;2023-04-29T05:59:21;101570.28;;;9.21;100.00
59757;BME280;45631;51.962;5.974;2023-04-29T06:01:49;101579.78;;;9.24;100.00
59757;BME280;45631;51.962;5.974;2023-04-29T06:04:17;101581.34;;;9.28;100.00
59757;BME280;45631;51.962;5.974;2023-04-29T06:06:45;101589.13;;;9.29;100.00
59757;BME280;45631;51.962;5.974;2023-04-29T06:09:13;101577.72;;;9.30;100.00
59757;BME280;45631;51.962;5.974;2023-04-29T06:11:53;101584.03;;;9.26;100.00
59757;BME280;45631;51.962;5.974;2023-04-29T06:14:23;101587.38;;;9.30;100.00
59757;BME280;45631;51.962;5.974;2023-04-29T06:16:51;101585.34;;;9.35;100.00
59757;BME280;45631;51.962;5.974;2023-04-29T06:19:19;101595.84;;;9.35;100.00
59757;BME280;45631;51.962;5.974;2023-04-29T06:21:47;101591.97;;;9.44;100.00
59757;BME280;45631;51.962;5.974;2023-04-29T06:24:16;101604.28;;;9.42;100.00
59757;BME280;45631;51.962;5.974;2023-04-29T06:26:44;101605.09;;;9.44;100.00
59757;BME280;45631;51.962;5.974;2023-04-29T06:29:12;101612.97;;;9.44;100.00
59757;BME280;45631;51.962;5.974;2023-04-29T06:31:41;101616.34;;;9.46;100.00
59757;BME280;45631;51.962;5.974;2023-04-29T06:34:09;101624.22;;;9.46;100.00
59757;BME280;45631;51.962;5.974;2023-04-29T06:36:38;101623.88;;;9.54;100.00
59757;BME280;45631;51.962;5.974;2023-04-29T06:39:07;101627.13;;;9.59;100.00
59757;BME280;45631;51.962;5.974;2023-04-29T06:41:35;101626.25;;;9.58;100.00
59757;BME280;45631;51.962;5.974;2023-04-29T06:44:03;101624.34;;;9.62;100.00
59757;BME280;45631;51.962;5.974;2023-04-29T06:46:31;101639.75;;;9.70;100.00
59757;BME280;45631;51.962;5.974;2023-04-29T06:49:01;101629.78;;;9.76;100.00
59757;BME280;45631;51.962;5.974;2023-04-29T06:51:29;101635.97;;;9.75;100.00
59757;BME280;45631;51.962;5.974;2023-04-29T06:53:57;101645.22;;;9.82;100.00
59757;BME280;45631;51.962;5.974;2023-04-29T06:56:25;101645.84;;;9.88;100.00
59757;BME280;45631;51.962;5.974;2023-04-29T06:58:54;101655.44;;;9.89;100.00
59757;BME280;45631;51.962;5.974;2023-04-29T07:01:22;101657.06;;;9.91;100.00
59757;BME280;45631;51.962;5.974;2023-04-29T07:03:50;101658.38;;;10.00;100.00
59757;BME280;45631;51.962;5.974;2023-04-29T07:06:20;101665.09;;;10.06;100.00
59757;BME280;45631;51.962;5.974;2023-04-29T07:08:48;101667.53;;;10.10;100.00
59757;BME280;45631;51.962;5.974;2023-04-29T07:11:19;101674.41;;;10.13;100.00
59757;BME280;45631;51.962;5.974;2023-04-29T07:13:51;101679.59;;;10.14;100.00
59757;BME280;45631;51.962;5.974;2023-04-29T07:16:20;101686.31;;;10.20;100.00
59757;BME280;45631;51.962;5.974;2023-04-29T07:18:52;101682.13;;;10.34;100.00
59757;BME280;45631;51.962;5.974;2023-04-29T07:21:22;101678.28;;;10.41;100.00
59757;BME280;45631;51.962;5.974;2023-04-29T07:23:50;101690.53;;;10.42;100.00
59757;BME280;45631;51.962;5.974;2023-04-29T07:26:18;101693.28;;;10.56;100.00
59757;BME280;45631;51.962;5.974;2023-04-29T07:28:47;101701.09;;;10.58;100.00
59757;BME280;45631;51.962;5.974;2023-04-29T07:31:15;101698.16;;;10.64;100.00
59757;BME280;45631;51.962;5.974;2023-04-29T07:33:44;101693.41;;;10.71;100.00
59757;BME280;45631;51.962;5.974;2023-04-29T07:36:13;101691.34;;;10.93;100.00
59757;BME280;45631;51.962;5.974;2023-04-29T07:38:42;101696.28;;;10.99;100.00
59757;BME280;45631;51.962;5.974;2023-04-29T07:41:11;101697.66;;;11.07;100.00
59757;BME280;45631;51.962;5.974;2023-04-29T07:43:39;101704.22;;;11.15;100.00
59757;BME280;45631;51.962;5.974;2023-04-29T07:46:08;101714.75;;;11.15;100.00
59757;BME280;45631;51.962;5.974;2023-04-29T07:48:36;101719.75;;;11.20;100.00
59757;BME280;45631;51.962;5.974;2023-04-29T07:51:05;101719.75;;;11.20;100.00
59757;BME280;45631;51.962;5.974;2023-04-29T07:53:34;101724.97;;;11.38;100.00
59757;BME280;45631;51.962;5.974;2023-04-29T07:56:06;101732.38;;;11.47;100.00
59757;BME280;45631;51.962;5.974;2023-04-29T07:58:34;101735.44;;;11.55;100.00
59757;BME280;45631;51.962;5.974;2023-04-29T08:01:06;101728.88;;;11.62;100.00
59757;BME280;45631;51.962;5.974;2023-04-29T08:03:38;101733.75;;;11.70;100.00
59757;BME280;45631;51.962;5.974;2023-04-29T08:06:08;101744.94;;;11.90;100.00
59757;BME280;45631;51.962;5.974;2023-04-29T08:08:36;101747.84;;;11.85;100.00
59757;BME280;45631;51.962;5.974;2023-04-29T08:11:06;101749.19;;;11.92;100.00
59757;BME280;45631;51.962;5.974;2023-04-29T08:13:34;101748.19;;;11.95;100.00
59757;BME280;45631;51.962;5.974;2023-04-29T08:16:04;101752.50;;;12.12;100.00
59757;BME280;45631;51.962;5.974;2023-04-29T08:18:32;101749.34;;;12.21;100.00
59757;BME280;45631;51.962;5.974;2023-04-29T08:21:00;101756.44;;;12.35;100.00
59757;BME280;45631;51.962;5.974;2023-04-29T08:23:29;101759.47;;;12.43;100.00
59757;BME280;45631;51.962;5.974;2023-04-29T08:25:57;101765.25;;;12.50;100.00
59757;BME280;45631;51.962;5.974;2023-04-29T08:28:27;101764.13;;;12.54;100.00
59757;BME280;45631;51.962;5.974;2023-04-29T08:30:55;101762.88;;;12.76;100.00
59757;BME280;45631;51.962;5.974;2023-04-29T08:33:23;101763.25;;;12.84;100.00
59757;BME280;45631;51.962;5.974;2023-04-29T08:35:57;101771.56;;;12.92;100.00
59757;BME280;45631;51.962;5.974;2023-04-29T08:38:25;101773.84;;;12.98;100.00
59757;BME280;45631;51.962;5.974;2023-04-29T08:40:57;101767.81;;;13.11;100.00
59757;BME280;45631;51.962;5.974;2023-04-29T08:43:27;101770.72;;;13.21;100.00
59757;BME280;45631;51.962;5.974;2023-04-29T08:45:57;101774.31;;;13.19;100.00
59757;BME280;45631;51.962;5.974;2023-04-29T08:48:26;101773.53;;;13.32;100.00
59757;BME280;45631;51.962;5.974;2023-04-29T08:50:55;101769.06;;;13.48;100.00
59757;BME280;45631;51.962;5.974;2023-04-29T08:53:24;101766.94;;;13.68;100.00
59757;BME280;45631;51.962;5.974;2023-04-29T08:55:53;101775.97;;;13.78;100.00
59757;BME280;45631;51.962;5.974;2023-04-29T08:58:28;101779.28;;;13.82;100.00
59757;BME280;45631;51.962;5.974;2023-04-29T09:00:57;101776.84;;;14.06;100.00
59757;BME280;45631;51.962;5.974;2023-04-29T09:03:26;101777.13;;;14.01;100.00
59757;BME280;45631;51.962;5.974;2023-04-29T09:05:59;101778.72;;;14.04;100.00
59757;BME280;45631;51.962;5.974;2023-04-29T09:08:28;101780.22;;;14.35;100.00
59757;BME280;45631;51.962;5.974;2023-04-29T09:10:57;101781.78;;;14.65;100.00
59757;BME280;45631;51.962;5.974;2023-04-29T09:13:27;101784.34;;;14.93;100.00
59757;BME280;45631;51.962;5.974;2023-04-29T09:15:57;101781.19;;;15.00;100.00
59757;BME280;45631;51.962;5.974;2023-04-29T09:18:41;101789.13;;;15.26;100.00
59757;BME280;45631;51.962;5.974;2023-04-29T09:21:17;101784.31;;;15.44;100.00
59757;BME280;45631;51.962;5.974;2023-04-29T09:23:49;101779.38;;;15.77;100.00
59757;BME280;45631;51.962;5.974;2023-04-29T09:26:18;101788.22;;;16.01;100.00
59757;BME280;45631;51.962;5.974;2023-04-29T09:28:46;101782.41;;;16.20;100.00
59757;BME280;45631;51.962;5.974;2023-04-29T09:31:26;101786.59;;;16.12;100.00
59757;BME280;45631;51.962;5.974;2023-04-29T09:33:57;101792.84;;;16.11;100.00
59757;BME280;45631;51.962;5.974;2023-04-29T09:36:38;101798.59;;;16.29;100.00
59757;BME280;45631;51.962;5.974;2023-04-29T09:39:07;101802.50;;;16.12;100.00
59757;BME280;45631;51.962;5.974;2023-04-29T09:41:39;101801.88;;;16.32;100.00
59757;BME280;45631;51.962;5.974;2023-04-29T09:44:08;101805.56;;;16.18;100.00
59757;BME280;45631;51.962;5.974;2023-04-29T09:46:38;101806.00;;;16.12;100.00
59757;BME280;45631;51.962;5.974;2023-04-29T09:49:21;101806.78;;;16.26;100.00
59757;BME280;45631;51.962;5.974;2023-04-29T09:51:52;101806.84;;;16.13;100.00
59757;BME280;45631;51.962;5.974;2023-04-29T09:54:21;101811.06;;;16.39;100.00
59757;BME280;45631;51.962;5.974;2023-04-29T09:56:51;101803.38;;;16.23;100.00
59757;BME280;45631;51.962;5.974;2023-04-29T09:59:19;101804.97;;;16.26;100.00
59757;BME280;45631;51.962;5.974;2023-04-29T10:01:51;101807.03;;;16.22;100.00
59757;BME280;45631;51.962;5.974;2023-04-29T10:04:20;101802.69;;;16.21;100.00
59757;BME280;45631;51.962;5.974;2023-04-29T10:06:53;101808.66;;;16.36;100.00
59757;BME280;45631;51.962;5.974;2023-04-29T10:09:22;101804.47;;;16.21;100.00
59757;BME280;45631;51.962;5.974;2023-04-29T10:11:52;101816.53;;;16.49;100.00
59757;BME280;45631;51.962;5.974;2023-04-29T10:14:21;101804.81;;;16.41;100.00
59757;BME280;45631;51.962;5.974;2023-04-29T10:17:01;101818.59;;;16.46;100.00
59757;BME280;45631;51.962;5.974;2023-04-29T10:19:34;101815.19;;;16.19;100.00
59757;BME280;45631;51.962;5.974;2023-04-29T10:22:08;101822.03;;;16.35;100.00
59757;BME280;45631;51.962;5.974;2023-04-29T10:24:41;101815.59;;;16.26;100.00
59757;BME280;45631;51.962;5.974;2023-04-29T10:27:11;101811.22;;;16.25;100.00
59757;BME280;45631;51.962;5.974;2023-04-29T10:29:40;101806.16;;;16.46;100.00
59757;BME280;45631;51.962;5.974;2023-04-29T10:32:13;101810.63;;;16.46;100.00
59757;BME280;45631;51.962;5.974;2023-04-29T10:34:41;101814.19;;;16.33;99.41
59757;BME280;45631;51.962;5.974;2023-04-29T10:37:10;101817.66;;;16.22;97.18
59757;BME280;45631;51.962;5.974;2023-04-29T10:39:44;101812.78;;;16.16;98.85
59757;BME280;45631;51.962;5.974;2023-04-29T10:42:20;101817.97;;;16.42;100.00
59757;BME280;45631;51.962;5.974;2023-04-29T10:45:21;101817.94;;;16.78;100.00
59757;BME280;45631;51.962;5.974;2023-04-29T10:48:13;101826.31;;;16.84;96.36
59757;BME280;45631;51.962;5.974;2023-04-29T10:51:02;101821.63;;;16.88;96.37
59757;BME280;45631;51.962;5.974;2023-04-29T10:53:31;101821.41;;;16.91;96.89
59757;BME280;45631;51.962;5.974;2023-04-29T10:56:05;101824.94;;;17.03;99.33
59757;BME280;45631;51.962;5.974;2023-04-29T10:58:40;101828.97;;;16.84;96.33
59757;BME280;45631;51.962;5.974;2023-04-29T11:01:10;101836.16;;;16.95;95.31
59757;BME280;45631;51.962;5.974;2023-04-29T11:03:51;101828.56;;;16.66;97.69
59757;BME280;45631;51.962;5.974;2023-04-29T11:06:26;101826.09;;;16.63;100.00
59757;BME280;45631;51.962;5.974;2023-04-29T11:09:08;101827.81;;;16.64;97.01
59757;BME280;45631;51.962;5.974;2023-04-29T11:11:59;101832.28;;;16.64;97.70
59757;BME280;45631;51.962;5.974;2023-04-29T11:14:30;101829.47;;;16.54;96.95
59757;BME280;45631;51.962;5.974;2023-04-29T11:17:00;101828.94;;;16.37;93.20
59757;BME280;45631;51.962;5.974;2023-04-29T11:19:34;101827.78;;;16.53;90.57
59757;BME280;45631;51.962;5.974;2023-04-29T11:22:23;101828.94;;;16.73;92.46
59757;BME280;45631;51.962;5.974;2023-04-29T11:24:53;101826.97;;;16.99;91.27
59757;BME280;45631;51.962;5.974;2023-04-29T11:27:24;101826.97;;;17.11;87.21
59757;BME280;45631;51.962;5.974;2023-04-29T11:29:54;101830.13;;;17.04;95.22
59757;BME280;45631;51.962;5.974;2023-04-29T11:32:25;101834.09;;;16.99;89.71
59757;BME280;45631;51.962;5.974;2023-04-29T11:35:08;101840.13;;;16.65;87.09
59757;BME280;45631;51.962;5.974;2023-04-29T11:37:39;101830.28;;;16.79;89.50
59757;BME280;45631;51.962;5.974;2023-04-29T11:40:11;101835.78;;;16.64;88.83
59757;BME280;45631;51.962;5.974;2023-04-29T11:42:44;101833.06;;;16.77;89.51
59757;BME280;45631;51.962;5.974;2023-04-29T11:45:13;101833.94;;;16.89;92.12
59757;BME280;45631;51.962;5.974;2023-04-29T11:47:42;101830.59;;;16.98;90.13
59757;BME280;45631;51.962;5.974;2023-04-29T11:50:18;101829.38;;;16.91;88.49
59757;BME280;45631;51.962;5.974;2023-04-29T11:52:47;101831.72;;;17.07;88.93
59757;BME280;45631;51.962;5.974;2023-04-29T11:55:18;101836.44;;;17.37;86.49
59757;BME280;45631;51.962;5.974;2023-04-29T11:57:48;101844.28;;;17.39;84.31
59757;BME280;45631;51.962;5.974;2023-04-29T12:00:17;101841.88;;;17.47;80.92
59757;BME280;45631;51.962;5.974;2023-04-29T12:02:45;101837.50;;;17.46;82.75
59757;BME280;45631;51.962;5.974;2023-04-29T12:05:14;101839.09;;;17.49;80.64
59757;BME280;45631;51.962;5.974;2023-04-29T12:07:45;101838.59;;;17.44;78.19
59757;BME280;45631;51.962;5.974;2023-04-29T12:10:15;101843.81;;;17.45;80.41
59757;BME280;45631;51.962;5.974;2023-04-29T12:12:44;101839.72;;;17.41;81.31
59757;BME280;45631;51.962;5.974;2023-04-29T12:15:12;101845.50;;;17.46;84.52
59757;BME280;45631;51.962;5.974;2023-04-29T12:17:41;101840.16;;;17.69;83.95
59757;BME280;45631;51.962;5.974;2023-04-29T12:20:10;101836.78;;;17.67;82.37
59757;BME280;45631;51.962;5.974;2023-04-29T12:22:46;101830.84;;;17.74;83.59
59757;BME280;45631;51.962;5.974;2023-04-29T12:25:14;101836.41;;;17.94;87.75
59757;BME280;45631;51.962;5.974;2023-04-29T12:27:43;101832.72;;;18.18;82.67
59757;BME280;45631;51.962;5.974;2023-04-29T12:30:12;101837.53;;;18.35;79.00
59757;BME280;45631;51.962;5.974;2023-04-29T12:32:41;101830.91;;;18.18;76.56
59757;BME280;45631;51.962;5.974;2023-04-29T12:35:16;101833.44;;;18.20;75.52
59757;BME280;45631;51.962;5.974;2023-04-29T12:37:48;101838.44;;;18.02;75.43
59757;BME280;45631;51.962;5.974;2023-04-29T12:40:17;101845.59;;;18.01;81.38
59757;BME280;45631;51.962;5.974;2023-04-29T12:42:46;101830.69;;;18.10;81.06
59757;BME280;45631;51.962;5.974;2023-04-29T12:45:32;101839.28;;;18.02;80.04
59757;BME280;45631;51.962;5.974;2023-04-29T12:48:04;101832.19;;;17.92;76.40
59757;BME280;45631;51.962;5.974;2023-04-29T12:50:48;101836.41;;;18.05;74.10
59757;BME280;45631;51.962;5.974;2023-04-29T12:53:18;101835.31;;;18.08;75.18
59757;BME280;45631;51.962;5.974;2023-04-29T12:55:47;101833.22;;;18.12;76.42
59757;BME280;45631;51.962;5.974;2023-04-29T12:58:15;101825.00;;;18.15;73.44
59757;BME280;45631;51.962;5.974;2023-04-29T13:00:43;101829.88;;;17.87;74.63
59757;BME280;45631;51.962;5.974;2023-04-29T13:03:12;101834.47;;;17.85;77.32